createdAt,value
2023-05-06T00:00:06.756Z,14.80
2023-05-06T00:03:12.402Z,14.78
2023-05-06T00:05:40.931Z,14.70
2023-05-06T00:08:09.413Z,14.60
2023-05-06T00:10:37.790Z,14.54
2023-05-06T00:13:06.224Z,14.50
2023-05-06T00:15:35.401Z,14.50
2023-05-06T00:18:03.868Z,14.50
2023-05-06T00:20:32.418Z,14.50
2023-05-06T00:23:01.005Z,14.58
2023-05-06T00:25:29.364Z,14.60
2023-05-06T00:27:57.700Z,14.60
2023-05-06T00:30:26.170Z,14.60
2023-05-06T00:32:56.285Z,14.62
2023-05-06T00:35:24.777Z,14.60
2023-05-06T00:37:58.453Z,14.60
2023-05-06T00:40:26.916Z,14.60
2023-05-06T00:42:55.299Z,14.60
2023-05-06T00:45:24.714Z,14.62
2023-05-06T00:47:53.276Z,14.70
2023-05-06T00:50:22.597Z,14.70
2023-05-06T00:52:51.691Z,14.70
2023-05-06T00:55:21.502Z,14.70
2023-05-06T00:57:50.607Z,14.70
2023-05-06T01:00:20.312Z,14.70
2023-05-06T01:02:49.612Z,14.70
2023-05-06T01:05:21.262Z,14.70
2023-05-06T01:07:52.537Z,14.70
2023-05-06T01:10:27.196Z,14.70
2023-05-06T01:13:08.716Z,14.70
2023-05-06T01:15:52.790Z,14.70
2023-05-06T01:18:27.182Z,14.70
2023-05-06T01:20:56.800Z,14.80
2023-05-06T01:23:25.257Z,14.80
2023-05-06T01:25:53.601Z,14.78
2023-05-06T01:28:22.065Z,14.76
2023-05-06T01:30:58.683Z,14.72
2023-05-06T01:33:39.581Z,14.78
2023-05-06T01:36:19.000Z,14.80
2023-05-06T01:38:57.067Z,14.80
2023-05-06T01:41:26.085Z,14.78
2023-05-06T01:43:55.387Z,14.72
2023-05-06T01:46:24.818Z,14.70
2023-05-06T01:48:55.432Z,14.70
2023-05-06T01:51:25.130Z,14.70
2023-05-06T01:53:53.690Z,14.70
2023-05-06T01:56:22.100Z,14.60
2023-05-06T01:58:50.788Z,14.50
2023-05-06T02:01:19.186Z,14.40
2023-05-06T02:03:47.830Z,14.40
2023-05-06T02:06:16.322Z,14.40
2023-05-06T02:08:45.427Z,14.40
2023-05-06T02:11:19.129Z,14.40
2023-05-06T02:13:49.275Z,14.40
2023-05-06T02:16:17.697Z,14.40
2023-05-06T02:18:46.182Z,14.40
2023-05-06T02:21:14.584Z,14.40
2023-05-06T02:23:44.009Z,14.34
2023-05-06T02:26:12.467Z,14.30
2023-05-06T02:28:40.926Z,14.28
2023-05-06T02:31:09.331Z,14.20
2023-05-06T02:33:37.663Z,14.18
2023-05-06T02:36:06.379Z,14.10
2023-05-06T02:38:34.728Z,14.10
2023-05-06T02:41:03.952Z,14.10
2023-05-06T02:43:32.352Z,14.10
2023-05-06T02:46:00.772Z,14.10
2023-05-06T02:48:29.304Z,14.10
2023-05-06T02:50:58.579Z,14.10
2023-05-06T02:53:26.922Z,14.10
2023-05-06T02:55:55.235Z,14.10
2023-05-06T02:58:23.607Z,14.10
2023-05-06T03:00:52.326Z,14.10
2023-05-06T03:03:23.494Z,14.10
2023-05-06T03:05:51.997Z,14.10
2023-05-06T03:08:20.838Z,14.10
2023-05-06T03:10:50.519Z,14.10
2023-05-06T03:13:19.258Z,14.06
2023-05-06T03:15:54.790Z,14.10
2023-05-06T03:18:23.362Z,14.10
2023-05-06T03:20:51.921Z,14.10
2023-05-06T03:23:20.395Z,14.00
2023-05-06T03:25:48.924Z,13.98
2023-05-06T03:28:18.767Z,13.90
2023-05-06T03:30:48.035Z,13.80
2023-05-06T03:33:16.801Z,13.80
2023-05-06T03:35:45.259Z,13.80
2023-05-06T03:38:13.704Z,13.78
2023-05-06T03:40:47.259Z,13.76
2023-05-06T03:43:16.223Z,13.72
2023-05-06T03:45:45.113Z,13.80
2023-05-06T03:48:14.014Z,13.78
2023-05-06T03:50:46.709Z,13.72
2023-05-06T03:53:18.304Z,13.70
2023-05-06T03:55:47.395Z,13.70
2023-05-06T03:58:16.594Z,13.70
2023-05-06T04:00:46.109Z,13.70
2023-05-06T04:03:14.614Z,13.70
2023-05-06T04:05:50.975Z,13.70
2023-05-06T04:08:21.428Z,13.66
2023-05-06T04:10:50.388Z,13.60
2023-05-06T04:13:39.058Z,13.50
2023-05-06T04:16:11.387Z,13.54
2023-05-06T04:18:42.234Z,13.60
2023-05-06T04:21:12.815Z,13.70
2023-05-06T04:23:42.898Z,13.72
2023-05-06T04:26:12.393Z,13.80
2023-05-06T04:28:42.235Z,13.80
2023-05-06T04:31:11.264Z,13.80
2023-05-06T04:33:44.042Z,13.80
2023-05-06T04:36:16.315Z,13.88
2023-05-06T04:39:08.931Z,13.90
2023-05-06T04:41:37.951Z,13.90
2023-05-06T04:44:06.748Z,13.92
2023-05-06T04:46:35.268Z,14.00
2023-05-06T04:49:03.990Z,14.00
2023-05-06T04:51:32.379Z,14.00
2023-05-06T04:54:01.100Z,14.08
2023-05-06T04:56:29.575Z,14.10
2023-05-06T04:58:57.885Z,14.10
2023-05-06T05:01:26.532Z,14.14
2023-05-06T05:03:55.035Z,14.20
2023-05-06T05:06:23.435Z,14.20
2023-05-06T05:08:54.280Z,14.24
2023-05-06T05:11:24.387Z,14.30
2023-05-06T05:13:54.264Z,14.34
2023-05-06T05:16:24.216Z,14.40
2023-05-06T05:18:53.085Z,14.48
2023-05-06T05:21:23.396Z,14.54
2023-05-06T05:23:51.728Z,14.60
2023-05-06T05:26:20.513Z,14.70
2023-05-06T05:28:49.228Z,14.72
2023-05-06T05:31:18.219Z,14.80
2023-05-06T05:33:47.485Z,14.90
2023-05-06T05:36:17.089Z,14.94
2023-05-06T05:38:47.943Z,15.00
2023-05-06T05:41:17.575Z,15.10
2023-05-06T05:43:46.344Z,15.16
2023-05-06T05:46:15.538Z,15.20
2023-05-06T05:48:44.240Z,15.28
2023-05-06T05:51:12.816Z,15.30
2023-05-06T05:53:41.497Z,15.40
2023-05-06T05:56:10.811Z,15.40
2023-05-06T05:58:39.792Z,15.50
2023-05-06T06:01:08.177Z,15.60
2023-05-06T06:03:37.207Z,15.60
2023-05-06T06:06:07.075Z,15.70
2023-05-06T06:08:36.055Z,15.80
2023-05-06T06:11:05.897Z,15.88
2023-05-06T06:13:38.373Z,15.96
2023-05-06T06:16:07.302Z,16.04
2023-05-06T06:18:35.952Z,16.10
2023-05-06T06:21:04.500Z,16.20
2023-05-06T06:23:32.930Z,16.30
2023-05-06T06:26:03.402Z,16.40
2023-05-06T06:28:31.915Z,16.50
2023-05-06T06:31:00.693Z,16.60
2023-05-06T06:33:29.122Z,16.70
2023-05-06T06:35:57.542Z,16.80
2023-05-06T06:38:26.174Z,16.86
2023-05-06T06:40:54.812Z,16.90
2023-05-06T06:43:24.891Z,17.00
2023-05-06T06:45:56.588Z,17.08
2023-05-06T06:48:25.090Z,17.10
2023-05-06T06:50:53.566Z,17.20
2023-05-06T06:53:21.954Z,17.30
2023-05-06T06:55:50.310Z,17.38
2023-05-06T06:58:18.762Z,17.40
2023-05-06T07:00:47.162Z,17.50
2023-05-06T07:03:19.554Z,17.50
2023-05-06T07:05:48.395Z,17.60
2023-05-06T07:08:17.375Z,17.64
2023-05-06T07:10:45.810Z,17.70
2023-05-06T07:13:14.909Z,17.70
2023-05-06T07:15:43.311Z,17.80
2023-05-06T07:18:11.823Z,17.82
2023-05-06T07:20:40.391Z,17.90
2023-05-06T07:23:08.776Z,18.00
2023-05-06T07:25:37.250Z,18.02
2023-05-06T07:28:05.925Z,18.10
2023-05-06T07:30:34.263Z,18.20
2023-05-06T07:33:02.778Z,18.20
2023-05-06T07:35:31.302Z,18.30
2023-05-06T07:37:59.690Z,18.40
2023-05-06T07:40:28.093Z,18.40
2023-05-06T07:42:56.663Z,18.50
2023-05-06T07:45:25.378Z,18.50
2023-05-06T07:47:53.952Z,18.50
2023-05-06T07:50:22.646Z,18.60
2023-05-06T07:52:50.967Z,18.60
2023-05-06T07:55:19.346Z,18.70
2023-05-06T07:57:47.728Z,18.70
2023-05-06T08:00:17.084Z,18.80
2023-05-06T08:02:47.038Z,18.80
2023-05-06T08:05:15.541Z,18.90
2023-05-06T08:07:44.142Z,19.02
2023-05-06T08:10:12.504Z,19.10
2023-05-06T08:12:40.950Z,19.20
2023-05-06T08:15:10.530Z,19.30
2023-05-06T08:17:39.162Z,19.30
2023-05-06T08:20:08.347Z,19.30
2023-05-06T08:22:36.780Z,19.20
2023-05-06T08:25:05.566Z,19.30
2023-05-06T08:27:34.035Z,19.30
2023-05-06T08:30:02.457Z,19.40
2023-05-06T08:32:31.042Z,19.50
2023-05-06T08:35:00.815Z,19.52
2023-05-06T08:37:30.801Z,19.60
2023-05-06T08:40:00.042Z,19.60
2023-05-06T08:42:30.671Z,19.68
2023-05-06T08:45:00.158Z,19.70
2023-05-06T08:47:28.643Z,19.70
2023-05-06T08:49:57.080Z,19.80
2023-05-06T08:52:26.341Z,19.90
2023-05-06T08:55:01.506Z,20.00
2023-05-06T08:57:31.402Z,20.10
2023-05-06T09:00:00.410Z,20.20
2023-05-06T09:02:29.076Z,20.30
2023-05-06T09:04:57.560Z,20.40
2023-05-06T09:07:26.088Z,20.40
2023-05-06T09:09:54.528Z,20.38
2023-05-06T09:12:25.055Z,20.40
2023-05-06T09:14:54.644Z,20.50
2023-05-06T09:17:24.604Z,20.60
2023-05-06T09:19:54.951Z,20.70
2023-05-06T09:22:31.110Z,20.80
2023-05-06T09:24:59.941Z,20.90
2023-05-06T09:27:32.102Z,20.90
2023-05-06T09:30:03.328Z,20.92
2023-05-06T09:32:32.742Z,21.00
2023-05-06T09:35:01.816Z,21.00
2023-05-06T09:37:30.270Z,21.10
2023-05-06T09:40:00.744Z,21.10
2023-05-06T09:42:30.300Z,21.10
2023-05-06T09:45:01.908Z,21.10
2023-05-06T09:47:35.188Z,21.20
2023-05-06T09:50:04.289Z,21.20
2023-05-06T09:52:32.894Z,21.26
2023-05-06T09:55:04.172Z,21.20
2023-05-06T09:57:33.516Z,21.20
2023-05-06T10:00:03.139Z,21.20
2023-05-06T10:02:41.980Z,21.20
2023-05-06T10:05:13.144Z,21.30
2023-05-06T10:07:42.496Z,21.30
2023-05-06T10:10:14.618Z,21.38
2023-05-06T10:12:43.858Z,21.32
2023-05-06T10:15:12.753Z,21.36
2023-05-06T10:17:45.410Z,21.40
2023-05-06T10:20:14.955Z,21.44
2023-05-06T10:23:07.002Z,21.50
2023-05-06T10:25:42.845Z,21.50
2023-05-06T10:28:23.171Z,21.50
2023-05-06T10:30:59.117Z,21.50
2023-05-06T10:33:28.779Z,21.60
2023-05-06T10:36:12.471Z,21.70
2023-05-06T10:38:46.659Z,21.60
2023-05-06T10:41:15.882Z,21.60
2023-05-06T10:43:45.483Z,21.60
2023-05-06T10:46:15.848Z,21.70
2023-05-06T10:49:11.317Z,21.68
2023-05-06T10:51:44.232Z,21.66
2023-05-06T10:54:47.121Z,21.70
2023-05-06T10:57:15.805Z,21.60
2023-05-06T10:59:47.967Z,21.60
2023-05-06T11:02:20.976Z,21.52
2023-05-06T11:05:01.017Z,21.60
2023-05-06T11:07:29.563Z,21.60
2023-05-06T11:10:03.858Z,21.70
2023-05-06T11:12:53.065Z,21.70
2023-05-06T11:15:36.496Z,21.74
2023-05-06T11:18:35.114Z,21.78
2023-05-06T11:21:07.909Z,21.80
2023-05-06T11:23:42.556Z,21.78
2023-05-06T11:26:12.199Z,21.80
2023-05-06T11:28:44.286Z,21.80
2023-05-06T11:31:13.958Z,21.82
2023-05-06T11:34:04.095Z,21.90
2023-05-06T11:36:32.797Z,22.00
2023-05-06T11:39:06.136Z,22.00
2023-05-06T11:41:34.917Z,22.00
2023-05-06T11:44:03.341Z,21.90
2023-05-06T11:46:33.633Z,21.90
2023-05-06T11:49:03.668Z,21.90
2023-05-06T11:51:32.821Z,21.90
2023-05-06T11:54:49.634Z,21.90
2023-05-06T11:57:20.353Z,21.90
2023-05-06T11:59:54.498Z,21.90
2023-05-06T12:02:23.124Z,21.90
2023-05-06T12:04:52.956Z,21.90
2023-05-06T12:07:21.634Z,21.80
2023-05-06T12:09:51.299Z,21.90
2023-05-06T12:12:23.511Z,21.90
2023-05-06T12:14:53.557Z,21.82
2023-05-06T12:17:22.500Z,21.90
2023-05-06T12:19:50.931Z,21.82
2023-05-06T12:22:24.866Z,21.82
2023-05-06T12:24:53.372Z,21.84
2023-05-06T12:27:32.490Z,21.88
2023-05-06T12:30:01.786Z,21.86
2023-05-06T12:32:31.279Z,21.90
2023-05-06T12:35:00.672Z,21.90
2023-05-06T12:37:30.155Z,21.90
2023-05-06T12:39:59.374Z,21.90
2023-05-06T12:42:28.376Z,21.90
2023-05-06T12:44:56.903Z,21.90
2023-05-06T12:47:26.252Z,21.90
2023-05-06T12:49:59.327Z,21.90
2023-05-06T12:52:30.172Z,21.90
2023-05-06T12:55:01.915Z,21.86
2023-05-06T12:57:30.341Z,21.78
2023-05-06T12:59:58.770Z,21.70
2023-05-06T13:02:27.225Z,21.60
2023-05-06T13:04:57.142Z,21.52
2023-05-06T13:07:25.529Z,21.50
2023-05-06T13:09:53.925Z,21.50
2023-05-06T13:12:22.298Z,21.40
2023-05-06T13:14:50.654Z,21.30
2023-05-06T13:17:19.177Z,21.30
2023-05-06T13:19:47.874Z,21.22
2023-05-06T13:22:16.781Z,21.22
2023-05-06T13:24:45.127Z,21.20
2023-05-06T13:27:13.546Z,21.20
2023-05-06T13:29:42.112Z,21.10
2023-05-06T13:32:10.496Z,21.10
2023-05-06T13:34:38.879Z,21.06
2023-05-06T13:37:07.955Z,21.10
2023-05-06T13:39:36.373Z,21.00
2023-05-06T13:42:06.098Z,21.00
2023-05-06T13:44:36.508Z,21.00
2023-05-06T13:47:05.076Z,21.04
2023-05-06T13:49:33.470Z,21.00
2023-05-06T13:52:01.997Z,21.00
2023-05-06T13:54:30.550Z,21.00
2023-05-06T13:56:58.898Z,20.98
2023-05-06T13:59:27.355Z,20.90
2023-05-06T14:01:56.624Z,20.90
2023-05-06T14:04:25.106Z,20.80
2023-05-06T14:06:53.609Z,20.80
2023-05-06T14:09:21.968Z,20.80
2023-05-06T14:11:50.295Z,20.80
2023-05-06T14:14:18.668Z,20.70
2023-05-06T14:16:47.071Z,20.70
2023-05-06T14:19:15.418Z,20.78
2023-05-06T14:21:43.762Z,20.80
2023-05-06T14:24:12.741Z,20.74
2023-05-06T14:26:41.629Z,20.70
2023-05-06T14:29:10.155Z,20.74
2023-05-06T14:31:38.623Z,20.70
2023-05-06T14:34:06.977Z,20.76
2023-05-06T14:36:35.414Z,20.74
2023-05-06T14:39:03.839Z,20.72
2023-05-06T14:41:32.229Z,20.70
2023-05-06T14:44:00.626Z,20.70
2023-05-06T14:46:29.703Z,20.72
2023-05-06T14:48:58.327Z,20.70
2023-05-06T14:51:26.723Z,20.70
2023-05-06T14:53:55.322Z,20.64
2023-05-06T14:56:23.714Z,20.60
2023-05-06T14:58:52.118Z,20.60
2023-05-06T15:01:20.604Z,20.52
2023-05-06T15:03:51.157Z,20.50
2023-05-06T15:06:20.294Z,20.50
2023-05-06T15:08:48.635Z,20.50
2023-05-06T15:11:17.137Z,20.40
2023-05-06T15:13:45.595Z,20.40
2023-05-06T15:16:14.005Z,20.40
2023-05-06T15:18:42.941Z,20.40
2023-05-06T15:21:13.471Z,20.40
2023-05-06T15:23:41.956Z,20.40
2023-05-06T15:26:10.354Z,20.30
2023-05-06T15:28:38.787Z,20.30
2023-05-06T15:31:07.262Z,20.30
2023-05-06T15:33:35.678Z,20.30
2023-05-06T15:36:04.346Z,20.30
2023-05-06T15:38:52.963Z,20.30
2023-05-06T15:41:23.538Z,20.30
2023-05-06T15:43:51.871Z,20.30
2023-05-06T15:46:20.469Z,20.30
2023-05-06T15:48:54.187Z,20.30
2023-05-06T15:51:31.280Z,20.30
2023-05-06T15:53:59.656Z,20.30
2023-05-06T15:56:28.181Z,20.22
2023-05-06T15:58:56.618Z,20.22
2023-05-06T16:01:45.010Z,20.20
2023-05-06T16:04:13.675Z,20.20
2023-05-06T16:06:42.134Z,20.20
2023-05-06T16:09:10.581Z,20.20
2023-05-06T16:11:39.347Z,20.20
2023-05-06T16:14:07.832Z,20.20
2023-05-06T16:16:36.271Z,20.20
2023-05-06T16:19:05.031Z,20.20
2023-05-06T16:21:33.546Z,20.20
2023-05-06T16:24:02.686Z,20.20
2023-05-06T16:26:33.346Z,20.20
2023-05-06T16:29:01.854Z,20.20
2023-05-06T16:31:30.605Z,20.20
2023-05-06T16:33:59.127Z,20.20
2023-05-06T16:36:28.713Z,20.14
2023-05-06T16:39:01.332Z,20.10
2023-05-06T16:41:30.001Z,20.10
2023-05-06T16:43:58.476Z,20.10
2023-05-06T16:46:27.018Z,20.10
2023-05-06T16:48:56.118Z,20.00
2023-05-06T16:51:24.890Z,20.00
2023-05-06T16:53:53.261Z,20.00
2023-05-06T16:56:22.774Z,20.00
2023-05-06T16:58:51.338Z,20.00
2023-05-06T17:01:20.043Z,20.00
2023-05-06T17:03:48.495Z,19.98
2023-05-06T17:06:16.885Z,19.96
2023-05-06T17:08:45.502Z,19.90
2023-05-06T17:11:14.095Z,19.90
2023-05-06T17:13:42.451Z,19.90
2023-05-06T17:16:11.344Z,19.90
2023-05-06T17:18:39.764Z,19.90
2023-05-06T17:21:09.168Z,19.90
2023-05-06T17:23:37.503Z,19.90
2023-05-06T17:28:54.872Z,19.80
2023-05-06T17:31:23.575Z,19.80
2023-05-06T17:33:52.651Z,19.80
2023-05-06T17:36:21.523Z,19.80
2023-05-06T17:39:12.706Z,19.72
2023-05-06T17:41:41.248Z,19.70
2023-05-06T17:44:09.716Z,19.68
2023-05-06T17:46:40.486Z,19.60
2023-05-06T17:49:08.870Z,19.60
2023-05-06T17:51:37.486Z,19.50
2023-05-06T17:54:05.855Z,19.50
2023-05-06T17:56:34.232Z,19.50
2023-05-06T17:59:02.901Z,19.46
2023-05-06T18:01:32.104Z,19.40
2023-05-06T18:04:00.725Z,19.42
2023-05-06T18:06:29.943Z,19.40
2023-05-06T18:08:58.351Z,19.40
2023-05-06T18:11:26.863Z,19.40
2023-05-06T18:13:56.283Z,19.36
2023-05-06T18:16:25.013Z,19.30
2023-05-06T18:18:53.494Z,19.26
2023-05-06T18:21:22.477Z,19.20
2023-05-06T18:23:53.614Z,19.20
2023-05-06T18:26:43.451Z,19.20
2023-05-06T18:29:13.815Z,19.20
2023-05-06T18:31:42.714Z,19.18
2023-05-06T18:34:11.513Z,19.14
2023-05-06T18:36:39.973Z,19.10
2023-05-06T18:39:08.451Z,19.10
2023-05-06T18:41:36.909Z,19.10
2023-05-06T18:44:05.942Z,19.10
2023-05-06T18:46:34.564Z,19.04
2023-05-06T18:49:02.917Z,19.04
2023-05-06T18:51:32.107Z,19.00
2023-05-06T18:54:00.610Z,19.00
2023-05-06T18:56:29.059Z,19.00
2023-05-06T18:58:57.443Z,18.98
2023-05-06T19:01:26.077Z,18.90
2023-05-06T19:03:54.873Z,18.90
2023-05-06T19:06:23.971Z,18.80
2023-05-06T19:08:52.912Z,18.80
2023-05-06T19:11:21.639Z,18.78
2023-05-06T19:13:50.850Z,18.72
2023-05-06T19:16:19.289Z,18.70
2023-05-06T19:18:48.131Z,18.68
2023-05-06T19:21:16.786Z,18.60
2023-05-06T19:23:45.479Z,18.60
2023-05-06T19:26:14.386Z,18.60
2023-05-06T19:28:42.785Z,18.60
2023-05-06T19:31:11.474Z,18.60
2023-05-06T19:33:40.465Z,18.60
2023-05-06T19:36:09.619Z,18.50
2023-05-06T19:38:38.411Z,18.50
2023-05-06T19:41:08.659Z,18.50
2023-05-06T19:43:44.656Z,18.44
2023-05-06T19:46:13.803Z,18.40
2023-05-06T19:48:42.147Z,18.40
2023-05-06T19:51:10.567Z,18.40
2023-05-06T19:53:39.005Z,18.40
2023-05-06T19:56:11.922Z,18.38
2023-05-06T19:58:40.425Z,18.30
2023-05-06T20:01:09.225Z,18.30
2023-05-06T20:03:37.945Z,18.30
2023-05-06T20:06:07.016Z,18.30
2023-05-06T20:08:35.551Z,18.20
2023-05-06T20:11:03.986Z,18.14
2023-05-06T20:13:32.443Z,18.10
2023-05-06T20:16:02.092Z,18.10
2023-05-06T20:18:32.069Z,18.08
2023-05-06T20:21:00.530Z,18.06
2023-05-06T20:23:30.902Z,18.10
2023-05-06T20:25:59.235Z,18.10
2023-05-06T20:28:27.635Z,18.10
2023-05-06T20:30:56.087Z,18.00
2023-05-06T20:33:24.482Z,18.00
2023-05-06T20:35:52.813Z,18.00
2023-05-06T20:38:21.453Z,18.00
2023-05-06T20:40:50.125Z,18.00
2023-05-06T20:43:18.518Z,17.96
2023-05-06T20:45:46.972Z,17.98
2023-05-06T20:48:15.456Z,17.98
2023-05-06T20:50:43.933Z,17.90
2023-05-06T20:53:12.302Z,17.90
2023-05-06T20:55:40.910Z,17.88
2023-05-06T20:58:09.352Z,17.80
2023-05-06T21:00:37.843Z,17.80
2023-05-06T21:03:06.265Z,17.80
2023-05-06T21:05:34.759Z,17.80
2023-05-06T21:08:03.189Z,17.80
2023-05-06T21:10:31.552Z,17.80
2023-05-06T21:13:00.237Z,17.80
2023-05-06T21:15:28.590Z,17.80
2023-05-06T21:17:56.990Z,17.70
2023-05-06T21:20:25.502Z,17.70
2023-05-06T21:22:53.951Z,17.68
2023-05-06T21:25:22.521Z,17.66
2023-05-06T21:27:50.852Z,17.62
2023-05-06T21:30:19.218Z,17.60
2023-05-06T21:32:47.698Z,17.60
2023-05-06T21:35:16.656Z,17.60
2023-05-06T21:37:45.012Z,17.60
2023-05-06T21:40:13.456Z,17.60
2023-05-06T21:42:41.813Z,17.60
2023-05-06T21:45:11.776Z,17.60
2023-05-06T21:47:40.348Z,17.60
2023-05-06T21:50:10.934Z,17.60
2023-05-06T21:52:39.676Z,17.56
2023-05-06T21:55:08.708Z,17.50
2023-05-06T21:57:37.330Z,17.48
2023-05-06T22:00:12.119Z,17.40
2023-05-06T22:02:41.411Z,17.40
2023-05-06T22:05:10.316Z,17.40
2023-05-06T22:07:38.874Z,17.40
2023-05-06T22:10:07.756Z,17.36
2023-05-06T22:12:36.947Z,17.30
2023-05-06T22:15:06.013Z,17.30
2023-05-06T22:17:34.967Z,17.30
2023-05-06T22:20:04.588Z,17.30
2023-05-06T22:22:33.334Z,17.30
2023-05-06T22:25:01.776Z,17.26
2023-05-06T22:27:30.254Z,17.20
2023-05-06T22:29:58.664Z,17.20
2023-05-06T22:32:27.344Z,17.20
2023-05-06T22:34:55.766Z,17.20
2023-05-06T22:37:24.141Z,17.20
2023-05-06T22:39:53.444Z,17.20
2023-05-06T22:42:21.847Z,17.18
2023-05-06T22:44:50.145Z,17.10
2023-05-06T22:47:19.952Z,17.10
2023-05-06T22:49:48.331Z,17.10
2023-05-06T22:52:17.203Z,17.10
2023-05-06T22:54:45.709Z,17.08
2023-05-06T22:57:14.676Z,17.04
2023-05-06T22:59:43.020Z,17.00
2023-05-06T23:02:11.599Z,17.00
2023-05-06T23:04:40.651Z,17.00
2023-05-06T23:07:09.077Z,17.00
2023-05-06T23:09:37.472Z,17.00
2023-05-06T23:12:06.375Z,16.90
2023-05-06T23:14:34.785Z,16.90
2023-05-06T23:17:03.117Z,16.90
2023-05-06T23:19:31.517Z,16.90
2023-05-06T23:21:59.897Z,16.80
2023-05-06T23:24:28.309Z,16.80
2023-05-06T23:26:56.601Z,16.80
2023-05-06T23:29:24.946Z,16.80
2023-05-06T23:31:53.341Z,16.80
2023-05-06T23:34:21.736Z,16.80
2023-05-06T23:36:50.141Z,16.80
2023-05-06T23:39:18.621Z,16.80
2023-05-06T23:41:47.008Z,16.76
2023-05-06T23:44:15.412Z,16.70
2023-05-06T23:46:43.887Z,16.70
2023-05-06T23:49:12.270Z,16.62
2023-05-06T23:51:40.625Z,16.64
2023-05-06T23:54:09.000Z,16.60
2023-05-06T23:56:37.370Z,16.60
2023-05-06T23:59:06.347Z,16.60
